Norfolk, New York
Current Conditions -  °F | °C
As of 4:53 AM on Wednesday 22 Oct 2014 (Local Time) from KMSS Reporting Station
Overcast Overcast  
Wind Chill: 39°   Ceiling: 2100
Heat Index: 45°   Visibility: 10mi
Dew Point: 35°   Wind: 14mph
Humidity: 68%   Direction: 40°NE
Pressure: 30.18"   Gusts: NA
Location:  44.8°N, 74.99°W
Report Text: KMSS 220853Z AUTO 04012KT 10SM OVC021 07/02 A3018 RMK AO2 SLP223 T00720017 53006
Loading
Personal Weather Stations






























Interactive Weather Map
Tropical Storm Tracking
New forecast layout! Learn more

10-Day Weather Forecast

Advertisements
Track Severe Weather on mobile